createdAt,value
2022-10-03T00:00:14.177Z,9.43
2022-10-03T00:03:14.422Z,9.38
2022-10-03T00:05:58.158Z,9.38
2022-10-03T00:08:50.439Z,9.22
2022-10-03T00:11:31.651Z,9.24
2022-10-03T00:14:16.480Z,9.30
2022-10-03T00:16:59.750Z,9.32
2022-10-03T00:19:41.766Z,9.33
2022-10-03T00:22:25.578Z,9.35
2022-10-03T00:25:13.150Z,9.32
2022-10-03T00:27:55.067Z,9.29
2022-10-03T00:30:42.247Z,9.29
2022-10-03T00:33:25.643Z,9.20
2022-10-03T00:36:06.660Z,9.26
2022-10-03T00:39:10.615Z,9.20
2022-10-03T00:42:31.094Z,9.22
2022-10-03T00:45:35.933Z,9.19
2022-10-03T00:48:41.731Z,9.19
2022-10-03T00:51:32.371Z,9.13
2022-10-03T00:54:21.815Z,9.16
2022-10-03T00:57:12.607Z,9.02
2022-10-03T01:00:01.805Z,9.04
2022-10-03T01:02:46.789Z,9.02
2022-10-03T01:05:31.287Z,9.04
2022-10-03T01:08:33.924Z,8.99
2022-10-03T01:11:18.976Z,9.01
2022-10-03T01:14:03.707Z,8.98
2022-10-03T01:16:44.734Z,9.06
2022-10-03T01:19:36.847Z,9.02
2022-10-03T01:22:33.452Z,9.05
2022-10-03T01:25:17.999Z,9.06
2022-10-03T01:28:18.465Z,9.03
2022-10-03T01:30:57.209Z,9.01
2022-10-03T01:33:36.920Z,9.03
2022-10-03T01:36:12.301Z,9.03
2022-10-03T01:38:48.199Z,9.02
2022-10-03T01:41:28.733Z,8.97
2022-10-03T01:44:12.128Z,8.98
2022-10-03T01:46:50.958Z,9.00
2022-10-03T01:49:30.883Z,9.06
2022-10-03T01:52:10.323Z,9.09
2022-10-03T01:54:50.026Z,9.17
2022-10-03T01:57:31.877Z,9.17
2022-10-03T02:00:07.895Z,9.19
2022-10-03T02:02:49.876Z,9.09
2022-10-03T02:05:28.163Z,9.08
2022-10-03T02:08:07.263Z,9.09
2022-10-03T02:10:47.910Z,9.06
2022-10-03T02:13:26.863Z,9.08
2022-10-03T02:16:07.714Z,9.05
2022-10-03T02:18:48.098Z,9.04
2022-10-03T02:21:23.050Z,9.04
2022-10-03T02:24:17.412Z,9.07
2022-10-03T02:27:26.828Z,9.03
2022-10-03T02:30:09.382Z,8.97
2022-10-03T02:33:44.623Z,8.98
2022-10-03T02:36:44.719Z,8.92
2022-10-03T02:40:00.379Z,8.91
2022-10-03T02:42:56.678Z,8.96
2022-10-03T02:45:51.402Z,8.97
2022-10-03T02:49:04.285Z,8.95
2022-10-03T02:52:13.326Z,8.90
2022-10-03T02:54:57.253Z,8.82
2022-10-03T02:57:54.300Z,8.74
2022-10-03T03:00:39.637Z,8.76
2022-10-03T03:03:38.984Z,8.84
2022-10-03T03:06:42.966Z,8.88
2022-10-03T03:09:46.881Z,8.89
2022-10-03T03:12:55.955Z,8.93
2022-10-03T03:16:00.730Z,8.93
2022-10-03T03:18:36.609Z,8.89
2022-10-03T03:21:18.327Z,8.96
2022-10-03T03:24:06.734Z,8.89
2022-10-03T03:26:59.115Z,8.88
2022-10-03T03:29:42.703Z,8.96
2022-10-03T03:32:28.963Z,8.97
2022-10-03T03:35:17.591Z,9.02
2022-10-03T03:38:01.076Z,9.02
2022-10-03T03:40:44.694Z,8.98
2022-10-03T03:43:34.454Z,9.02
2022-10-03T03:46:15.164Z,9.00
2022-10-03T03:49:17.207Z,8.96
2022-10-03T03:52:00.825Z,8.95
2022-10-03T03:55:08.453Z,8.96
2022-10-03T03:58:07.813Z,8.99
2022-10-03T04:01:02.568Z,9.00
2022-10-03T04:03:48.659Z,8.99
2022-10-03T04:06:34.916Z,8.93
2022-10-03T04:09:25.951Z,9.02
2022-10-03T04:12:09.438Z,9.06
2022-10-03T04:15:06.334Z,9.04
2022-10-03T04:18:10.453Z,9.05
2022-10-03T04:21:10.306Z,9.09
2022-10-03T04:24:01.083Z,9.08
2022-10-03T04:26:46.499Z,9.11
2022-10-03T04:29:42.321Z,9.16
2022-10-03T04:32:28.584Z,9.15
2022-10-03T04:35:24.710Z,9.20
2022-10-03T04:38:07.348Z,9.18
2022-10-03T04:40:47.611Z,9.27
2022-10-03T04:43:34.597Z,9.38
2022-10-03T04:46:22.875Z,9.41
2022-10-03T04:49:02.503Z,9.43
2022-10-03T04:51:46.471Z,9.48
2022-10-03T04:54:30.154Z,9.44
2022-10-03T04:57:15.220Z,9.45
2022-10-03T04:59:55.149Z,9.54
2022-10-03T05:02:40.124Z,9.56
2022-10-03T05:05:23.392Z,9.57
2022-10-03T05:08:06.441Z,9.58
2022-10-03T05:11:06.115Z,9.60
2022-10-03T05:13:44.723Z,9.62
2022-10-03T05:16:25.953Z,9.53
2022-10-03T05:19:15.876Z,9.58
2022-10-03T05:21:55.826Z,9.66
2022-10-03T05:24:36.678Z,9.65
2022-10-03T05:27:19.480Z,9.72
2022-10-03T05:30:01.934Z,9.72
2022-10-03T05:32:41.142Z,9.81
2022-10-03T05:35:31.485Z,9.91
2022-10-03T05:38:26.614Z,9.91
2022-10-03T05:41:08.497Z,9.92
2022-10-03T05:43:52.235Z,10.07
2022-10-03T05:46:41.245Z,10.16
2022-10-03T05:49:49.531Z,10.25
2022-10-03T05:52:41.790Z,10.27
2022-10-03T05:55:42.875Z,10.23
2022-10-03T05:58:49.005Z,10.37
2022-10-03T06:01:42.458Z,10.47
2022-10-03T06:04:41.484Z,10.57
2022-10-03T06:07:22.562Z,10.64
2022-10-03T06:10:28.356Z,10.73
2022-10-03T06:13:13.272Z,10.78
2022-10-03T06:15:54.753Z,10.82
2022-10-03T06:19:04.203Z,10.83
2022-10-03T06:22:14.643Z,10.85
2022-10-03T06:25:13.093Z,11.01
2022-10-03T06:28:21.240Z,11.09
2022-10-03T06:31:31.829Z,11.07
2022-10-03T06:34:41.075Z,11.17
2022-10-03T06:37:51.107Z,11.22
2022-10-03T06:40:47.613Z,11.34
2022-10-03T06:43:52.635Z,11.40
2022-10-03T06:46:48.094Z,11.31
2022-10-03T06:49:32.034Z,11.43
2022-10-03T06:52:50.340Z,11.50
2022-10-03T06:56:12.815Z,11.49
2022-10-03T06:59:18.458Z,11.64
2022-10-03T07:02:19.768Z,11.77
2022-10-03T07:05:29.283Z,11.82
2022-10-03T07:08:34.079Z,11.86
2022-10-03T07:11:26.118Z,11.89
2022-10-03T07:14:34.604Z,11.86
2022-10-03T07:17:33.283Z,11.89
2022-10-03T07:20:47.014Z,11.87
2022-10-03T07:23:53.078Z,11.91
2022-10-03T07:27:00.871Z,11.87
2022-10-03T07:30:02.973Z,11.78
2022-10-03T07:33:07.171Z,11.94
2022-10-03T07:36:08.371Z,12.04
2022-10-03T07:39:05.974Z,12.02
2022-10-03T07:42:00.399Z,11.93
2022-10-03T07:45:23.854Z,12.04
2022-10-03T07:48:28.210Z,12.04
2022-10-03T07:51:12.434Z,12.10
2022-10-03T07:54:20.629Z,12.05
2022-10-03T07:57:21.177Z,12.11
2022-10-03T08:00:22.449Z,12.11
2022-10-03T08:03:34.993Z,11.97
2022-10-03T08:06:17.586Z,11.84
2022-10-03T08:09:22.558Z,11.49
2022-10-03T08:12:27.945Z,11.62
2022-10-03T08:15:10.453Z,11.71
2022-10-03T08:18:19.335Z,11.77
2022-10-03T08:20:56.022Z,11.48
2022-10-03T08:23:56.247Z,11.56
2022-10-03T08:26:52.659Z,11.46
2022-10-03T08:29:51.754Z,11.31
2022-10-03T08:32:56.459Z,11.39
2022-10-03T08:35:47.487Z,11.41
2022-10-03T08:38:36.802Z,11.46
2022-10-03T08:41:54.823Z,11.51
2022-10-03T08:45:00.214Z,11.58
2022-10-03T08:48:04.819Z,11.69
2022-10-03T08:51:02.019Z,11.74
2022-10-03T08:54:06.679Z,11.78
2022-10-03T08:56:59.087Z,11.62
2022-10-03T09:00:00.989Z,11.68
2022-10-03T09:03:33.066Z,11.73
2022-10-03T09:06:29.266Z,11.67
2022-10-03T09:09:36.568Z,11.90
2022-10-03T09:12:52.030Z,12.04
2022-10-03T09:15:52.894Z,12.22
2022-10-03T09:18:53.788Z,12.35
2022-10-03T09:22:01.117Z,12.33
2022-10-03T09:25:01.334Z,12.37
2022-10-03T09:28:10.126Z,12.48
2022-10-03T09:30:53.334Z,12.44
2022-10-03T09:34:02.921Z,12.59
2022-10-03T09:37:21.355Z,12.58
2022-10-03T09:40:26.878Z,12.63
2022-10-03T09:43:18.271Z,12.70
2022-10-03T09:46:28.359Z,12.79
2022-10-03T09:49:26.752Z,12.88
2022-10-03T09:52:22.163Z,12.85
2022-10-03T09:55:38.991Z,12.67
2022-10-03T09:58:33.255Z,12.79
2022-10-03T10:01:22.844Z,12.94
2022-10-03T10:04:54.773Z,12.79
2022-10-03T10:07:52.293Z,12.96
2022-10-03T10:11:07.001Z,12.98
2022-10-03T10:14:19.759Z,12.89
2022-10-03T10:17:18.798Z,12.95
2022-10-03T10:20:06.734Z,12.92
2022-10-03T10:23:14.272Z,12.97
2022-10-03T10:26:21.555Z,12.97
2022-10-03T10:29:29.506Z,13.07
2022-10-03T10:32:47.286Z,13.03
2022-10-03T10:35:59.207Z,13.08
2022-10-03T10:38:59.467Z,12.89
2022-10-03T10:42:19.250Z,12.94
2022-10-03T10:45:21.734Z,13.00
2022-10-03T10:48:31.987Z,13.14
2022-10-03T10:51:46.891Z,13.16
2022-10-03T10:54:51.135Z,13.35
2022-10-03T10:58:03.134Z,13.40
2022-10-03T11:01:00.573Z,13.38
2022-10-03T11:04:14.531Z,13.41
2022-10-03T11:07:17.231Z,13.52
2022-10-03T11:10:33.264Z,13.40
2022-10-03T11:13:49.871Z,13.57
2022-10-03T11:17:06.614Z,13.59
2022-10-03T11:20:19.915Z,13.78
2022-10-03T11:23:36.779Z,13.93
2022-10-03T11:26:54.617Z,14.03
2022-10-03T11:30:06.267Z,13.98
2022-10-03T11:33:15.279Z,14.09
2022-10-03T11:36:28.746Z,14.22
2022-10-03T11:39:04.660Z,13.89
2022-10-03T11:41:46.167Z,14.09
2022-10-03T11:44:27.702Z,13.97
2022-10-03T11:47:33.632Z,13.95
2022-10-03T11:50:37.847Z,13.97
2022-10-03T11:53:36.075Z,14.00
2022-10-03T11:56:36.150Z,14.16
2022-10-03T11:59:51.075Z,14.09
2022-10-03T12:02:54.030Z,14.21
2022-10-03T12:05:41.907Z,14.31
2022-10-03T12:08:39.806Z,14.39
2022-10-03T12:11:18.797Z,13.63
2022-10-03T12:14:10.853Z,13.85
2022-10-03T12:17:05.391Z,13.77
2022-10-03T12:19:46.595Z,13.78
2022-10-03T12:22:35.620Z,13.85
2022-10-03T12:25:19.385Z,13.86
2022-10-03T12:28:10.595Z,13.69
2022-10-03T12:30:49.201Z,13.70
2022-10-03T12:33:35.420Z,14.04
2022-10-03T12:36:13.163Z,14.25
2022-10-03T12:39:13.491Z,14.34
2022-10-03T12:42:07.542Z,14.02
2022-10-03T12:44:49.725Z,14.34
2022-10-03T12:47:54.196Z,14.53
2022-10-03T12:50:38.590Z,14.90
2022-10-03T12:53:24.681Z,14.92
2022-10-03T12:56:13.777Z,15.07
2022-10-03T12:58:53.702Z,15.26
2022-10-03T13:01:44.028Z,15.25
2022-10-03T13:04:30.714Z,15.22
2022-10-03T13:07:17.727Z,15.42
2022-10-03T13:10:14.466Z,15.60
2022-10-03T13:12:52.394Z,15.54
2022-10-03T13:16:01.370Z,15.37
2022-10-03T13:18:43.302Z,15.07
2022-10-03T13:21:44.553Z,15.15
2022-10-03T13:24:25.838Z,14.80
2022-10-03T13:27:10.406Z,14.87
2022-10-03T13:29:45.490Z,14.80
2022-10-03T13:32:28.232Z,14.80
2022-10-03T13:35:34.205Z,14.73
2022-10-03T13:38:20.025Z,14.70
2022-10-03T13:41:00.313Z,13.88
2022-10-03T13:43:37.155Z,14.17
2022-10-03T13:46:17.193Z,14.08
2022-10-03T13:48:59.724Z,14.40
2022-10-03T13:51:44.598Z,14.39
2022-10-03T13:54:28.179Z,14.24
2022-10-03T13:57:11.406Z,14.45
2022-10-03T14:00:03.516Z,14.66
2022-10-03T14:02:59.148Z,14.72
2022-10-03T14:05:52.491Z,14.77
2022-10-03T14:08:51.346Z,14.61
2022-10-03T14:11:32.043Z,14.59
2022-10-03T14:14:40.228Z,14.50
2022-10-03T14:17:17.846Z,14.43
2022-10-03T14:20:05.571Z,14.29
2022-10-03T14:22:50.109Z,14.33
2022-10-03T14:25:25.746Z,14.15
2022-10-03T14:28:07.301Z,14.34
2022-10-03T14:31:05.438Z,14.47
2022-10-03T14:33:46.483Z,14.50
2022-10-03T14:36:35.492Z,14.71
2022-10-03T14:39:32.311Z,14.50
2022-10-03T14:42:29.339Z,14.63
2022-10-03T14:45:07.837Z,14.38
2022-10-03T14:47:47.086Z,14.45
2022-10-03T14:50:22.511Z,14.35
2022-10-03T14:53:01.687Z,14.39
2022-10-03T14:55:39.660Z,14.16
2022-10-03T14:58:19.872Z,13.90
2022-10-03T15:00:55.227Z,13.92
2022-10-03T15:03:32.654Z,13.55
2022-10-03T15:06:21.825Z,13.26
2022-10-03T15:08:57.542Z,13.24
2022-10-03T15:11:32.038Z,13.40
2022-10-03T15:14:08.706Z,13.46
2022-10-03T15:16:45.987Z,13.51
2022-10-03T15:19:22.822Z,13.45
2022-10-03T15:22:02.543Z,13.50
2022-10-03T15:24:35.489Z,13.42
2022-10-03T15:27:13.390Z,13.41
2022-10-03T15:29:46.801Z,13.22
2022-10-03T15:32:24.652Z,12.90
2022-10-03T15:35:00.507Z,12.60
2022-10-03T15:37:38.729Z,12.63
2022-10-03T15:40:21.916Z,12.16
2022-10-03T15:43:03.539Z,12.25
2022-10-03T15:45:37.305Z,12.16
2022-10-03T15:48:16.253Z,11.95
2022-10-03T15:50:52.164Z,11.91
2022-10-03T15:53:41.420Z,11.97
2022-10-03T15:56:18.218Z,12.00
2022-10-03T15:58:54.511Z,12.03
2022-10-03T16:01:29.634Z,12.04
2022-10-03T16:04:05.452Z,12.03
2022-10-03T16:06:47.142Z,11.90
2022-10-03T16:09:26.700Z,11.96
2022-10-03T16:12:24.854Z,11.83
2022-10-03T16:15:17.422Z,11.90
2022-10-03T16:17:54.820Z,11.84
2022-10-03T16:20:35.016Z,11.84
2022-10-03T16:23:17.053Z,11.86
2022-10-03T16:25:54.603Z,11.82
2022-10-03T16:28:33.335Z,11.73
2022-10-03T16:31:12.652Z,11.50
2022-10-03T16:33:54.615Z,11.47
2022-10-03T16:36:39.970Z,11.47
2022-10-03T16:39:20.573Z,11.49
2022-10-03T16:41:54.635Z,11.28
2022-10-03T16:44:39.015Z,11.26
2022-10-03T16:47:11.724Z,11.26
2022-10-03T16:50:08.253Z,10.99
2022-10-03T16:52:43.356Z,11.13
2022-10-03T16:55:21.663Z,11.13
2022-10-03T16:57:56.909Z,11.05
2022-10-03T17:00:37.996Z,11.15
2022-10-03T17:03:18.542Z,11.20
2022-10-03T17:05:54.416Z,11.32
2022-10-03T17:08:41.729Z,11.43
2022-10-03T17:11:20.062Z,11.57
2022-10-03T17:13:55.062Z,11.46
2022-10-03T17:16:38.851Z,11.56
2022-10-03T17:19:19.170Z,11.65
2022-10-03T17:21:54.115Z,11.72
2022-10-03T17:24:42.679Z,11.76
2022-10-03T17:27:24.734Z,11.84
2022-10-03T17:30:01.969Z,11.77
2022-10-03T17:32:38.141Z,11.63
2022-10-03T17:35:15.166Z,11.33
2022-10-03T17:38:44.976Z,11.46
2022-10-03T17:41:20.825Z,11.36
2022-10-03T17:44:03.411Z,11.13
2022-10-03T17:46:40.786Z,11.40
2022-10-03T17:49:24.351Z,11.47
2022-10-03T17:51:57.923Z,11.40
2022-10-03T17:54:33.443Z,11.49
2022-10-03T17:57:13.659Z,11.52
2022-10-03T17:59:54.650Z,11.51
2022-10-03T18:02:35.949Z,11.53
2022-10-03T18:05:14.348Z,11.59
2022-10-03T18:07:51.914Z,11.68
2022-10-03T18:10:28.332Z,11.67
2022-10-03T18:13:06.757Z,11.67
2022-10-03T18:16:02.857Z,11.68
2022-10-03T18:18:52.472Z,11.67
2022-10-03T18:21:37.309Z,11.45
2022-10-03T18:24:23.546Z,11.36
2022-10-03T18:27:07.922Z,11.34
2022-10-03T18:29:49.627Z,11.41
2022-10-03T18:32:24.702Z,11.39
2022-10-03T18:35:08.530Z,11.22
2022-10-03T18:37:54.707Z,11.29
2022-10-03T18:40:30.130Z,11.36
2022-10-03T18:43:05.265Z,11.42
2022-10-03T18:45:44.829Z,11.41
2022-10-03T18:48:26.162Z,11.45
2022-10-03T18:51:09.253Z,11.51
2022-10-03T18:53:46.668Z,11.53
2022-10-03T18:56:23.341Z,11.53
2022-10-03T18:59:15.113Z,11.52
2022-10-03T19:01:53.552Z,11.46
2022-10-03T19:04:39.943Z,11.52
2022-10-03T19:07:20.518Z,11.57
2022-10-03T19:10:25.449Z,11.55
2022-10-03T19:13:04.068Z,11.55
2022-10-03T19:16:17.911Z,11.51
2022-10-03T19:19:01.288Z,11.41
2022-10-03T19:21:37.278Z,11.39
2022-10-03T19:24:16.811Z,11.11
2022-10-03T19:26:53.651Z,10.92
2022-10-03T19:29:30.772Z,11.08
2022-10-03T19:32:07.483Z,11.14
2022-10-03T19:34:43.507Z,11.20
2022-10-03T19:37:18.687Z,11.09
2022-10-03T19:39:51.288Z,10.79
2022-10-03T19:42:32.658Z,10.86
2022-10-03T19:45:11.372Z,10.96
2022-10-03T19:47:50.571Z,10.93
2022-10-03T19:50:28.646Z,11.05
2022-10-03T19:53:11.230Z,10.79
2022-10-03T19:55:45.341Z,10.91
2022-10-03T19:58:24.185Z,10.95
2022-10-03T20:00:58.786Z,10.83
2022-10-03T20:03:38.223Z,10.76
2022-10-03T20:06:35.799Z,10.60
2022-10-03T20:09:21.275Z,10.43
2022-10-03T20:11:58.724Z,10.38
2022-10-03T20:14:34.456Z,10.11
2022-10-03T20:17:12.518Z,10.11
2022-10-03T20:19:53.855Z,10.16
2022-10-03T20:22:30.675Z,9.99
2022-10-03T20:25:06.221Z,10.01
2022-10-03T20:27:44.803Z,10.15
2022-10-03T20:30:25.147Z,10.10
2022-10-03T20:32:59.160Z,10.14
2022-10-03T20:35:44.306Z,10.14
2022-10-03T20:38:26.657Z,10.17
2022-10-03T20:41:25.123Z,9.96
2022-10-03T20:44:07.913Z,9.72
2022-10-03T20:46:44.583Z,9.85
2022-10-03T20:49:27.667Z,9.67
2022-10-03T20:52:01.789Z,9.67
2022-10-03T20:54:46.031Z,9.71
2022-10-03T20:57:21.318Z,9.73
2022-10-03T21:00:03.571Z,9.63
2022-10-03T21:02:41.440Z,9.75
2022-10-03T21:05:22.365Z,9.83
2022-10-03T21:07:57.853Z,9.62
2022-10-03T21:10:36.005Z,9.72
2022-10-03T21:13:14.956Z,9.56
2022-10-03T21:15:50.566Z,9.54
2022-10-03T21:18:26.419Z,9.62
2022-10-03T21:21:08.367Z,9.64
2022-10-03T21:23:46.612Z,9.59
2022-10-03T21:26:24.673Z,9.61
2022-10-03T21:29:16.239Z,9.64
2022-10-03T21:31:56.980Z,9.64
2022-10-03T21:34:34.339Z,9.66
2022-10-03T21:37:16.061Z,9.74
2022-10-03T21:40:04.435Z,9.73
2022-10-03T21:42:52.842Z,9.82
2022-10-03T21:45:32.291Z,9.84
2022-10-03T21:48:14.325Z,9.86
2022-10-03T21:50:53.317Z,9.69
2022-10-03T21:53:35.991Z,9.81
2022-10-03T21:56:32.524Z,9.63
2022-10-03T21:59:28.143Z,9.51
2022-10-03T22:02:08.051Z,9.62
2022-10-03T22:04:45.313Z,9.54
2022-10-03T22:07:27.729Z,9.45
2022-10-03T22:10:00.044Z,9.47
2022-10-03T22:12:41.516Z,9.54
2022-10-03T22:15:22.800Z,9.56
2022-10-03T22:17:59.144Z,9.61
2022-10-03T22:20:33.832Z,9.45
2022-10-03T22:23:23.951Z,9.41
2022-10-03T22:26:14.847Z,9.39
2022-10-03T22:28:55.200Z,9.46
2022-10-03T22:31:36.471Z,9.35
2022-10-03T22:34:26.164Z,9.35
2022-10-03T22:36:59.524Z,9.40
2022-10-03T22:39:34.782Z,9.32
2022-10-03T22:42:07.263Z,9.17
2022-10-03T22:44:43.782Z,9.24
2022-10-03T22:47:21.978Z,9.20
2022-10-03T22:49:59.202Z,9.22
2022-10-03T22:52:36.322Z,9.22
2022-10-03T22:55:12.846Z,9.25
2022-10-03T22:57:46.116Z,9.34
2022-10-03T23:00:22.755Z,9.39
2022-10-03T23:03:04.277Z,9.49
2022-10-03T23:06:03.891Z,9.56
2022-10-03T23:08:47.279Z,9.61
2022-10-03T23:11:22.640Z,9.71
2022-10-03T23:13:57.030Z,9.53
2022-10-03T23:16:43.761Z,9.58
2022-10-03T23:19:40.320Z,9.55
2022-10-03T23:22:15.981Z,9.58
2022-10-03T23:24:54.244Z,9.61
2022-10-03T23:28:09.850Z,9.60
2022-10-03T23:30:47.460Z,9.61
2022-10-03T23:33:48.836Z,9.47
2022-10-03T23:36:24.138Z,9.36
2022-10-03T23:39:00.574Z,9.34
2022-10-03T23:41:57.735Z,9.37
2022-10-03T23:44:49.287Z,9.39
2022-10-03T23:47:27.411Z,9.34
2022-10-03T23:50:02.199Z,9.35
2022-10-03T23:52:41.911Z,9.43
2022-10-03T23:55:17.694Z,9.37
2022-10-03T23:57:50.383Z,9.21
